sensor_id;sensor_type;location;lat;lon;timestamp;temperature;humidity
53876;DHT22;39789;53.216;5.624;2022-07-23T00:00:16;14.20;99.90
53876;DHT22;39789;53.216;5.624;2022-07-23T00:02:42;14.20;99.90
53876;DHT22;39789;53.216;5.624;2022-07-23T00:05:08;14.20;99.90
53876;DHT22;39789;53.216;5.624;2022-07-23T00:07:33;14.20;99.90
53876;DHT22;39789;53.216;5.624;2022-07-23T00:09:59;14.20;99.90
53876;DHT22;39789;53.216;5.624;2022-07-23T00:12:25;14.30;99.90
53876;DHT22;39789;53.216;5.624;2022-07-23T00:14:51;14.20;99.90
53876;DHT22;39789;53.216;5.624;2022-07-23T00:17:16;14.10;99.90
53876;DHT22;39789;53.216;5.624;2022-07-23T00:19:42;14.20;99.90
53876;DHT22;39789;53.216;5.624;2022-07-23T00:22:08;14.20;99.90
53876;DHT22;39789;53.216;5.624;2022-07-23T00:24:33;14.10;99.90
53876;DHT22;39789;53.216;5.624;2022-07-23T00:30:40;14.10;99.90
53876;DHT22;39789;53.216;5.624;2022-07-23T00:33:07;14.10;99.90
53876;DHT22;39789;53.216;5.624;2022-07-23T00:35:35;14.00;99.90
53876;DHT22;39789;53.216;5.624;2022-07-23T00:38:02;14.00;99.90
53876;DHT22;39789;53.216;5.624;2022-07-23T00:40:29;14.00;99.90
53876;DHT22;39789;53.216;5.624;2022-07-23T00:42:55;14.00;99.90
53876;DHT22;39789;53.216;5.624;2022-07-23T00:45:21;14.00;99.90
53876;DHT22;39789;53.216;5.624;2022-07-23T00:47:47;13.90;99.90
53876;DHT22;39789;53.216;5.624;2022-07-23T00:50:13;13.90;99.90
53876;DHT22;39789;53.216;5.624;2022-07-23T00:52:39;13.80;99.90
53876;DHT22;39789;53.216;5.624;2022-07-23T00:55:06;13.80;99.90
53876;DHT22;39789;53.216;5.624;2022-07-23T00:57:32;13.70;99.90
53876;DHT22;39789;53.216;5.624;2022-07-23T00:59:58;13.70;99.90
53876;DHT22;39789;53.216;5.624;2022-07-23T01:02:25;13.70;99.90
53876;DHT22;39789;53.216;5.624;2022-07-23T01:04:51;13.60;99.90
53876;DHT22;39789;53.216;5.624;2022-07-23T01:07:18;13.60;99.90
53876;DHT22;39789;53.216;5.624;2022-07-23T01:09:44;13.80;99.90
53876;DHT22;39789;53.216;5.624;2022-07-23T01:12:10;13.50;99.90
53876;DHT22;39789;53.216;5.624;2022-07-23T01:14:36;13.50;99.90
53876;DHT22;39789;53.216;5.624;2022-07-23T01:17:01;13.50;99.90
53876;DHT22;39789;53.216;5.624;2022-07-23T01:19:27;13.50;99.90
53876;DHT22;39789;53.216;5.624;2022-07-23T01:21:53;13.50;99.90
53876;DHT22;39789;53.216;5.624;2022-07-23T01:24:19;13.60;99.90
53876;DHT22;39789;53.216;5.624;2022-07-23T01:26:46;13.60;99.90
53876;DHT22;39789;53.216;5.624;2022-07-23T01:29:12;13.70;99.90
53876;DHT22;39789;53.216;5.624;2022-07-23T01:31:38;13.80;99.90
53876;DHT22;39789;53.216;5.624;2022-07-23T01:34:04;13.80;99.90
53876;DHT22;39789;53.216;5.624;2022-07-23T01:36:30;13.80;99.90
53876;DHT22;39789;53.216;5.624;2022-07-23T01:38:55;13.80;99.90
53876;DHT22;39789;53.216;5.624;2022-07-23T01:41:21;13.90;99.90
53876;DHT22;39789;53.216;5.624;2022-07-23T01:43:47;13.90;99.90
53876;DHT22;39789;53.216;5.624;2022-07-23T01:46:12;14.00;99.90
53876;DHT22;39789;53.216;5.624;2022-07-23T01:48:38;14.00;99.90
53876;DHT22;39789;53.216;5.624;2022-07-23T01:51:04;14.10;99.90
53876;DHT22;39789;53.216;5.624;2022-07-23T01:53:29;14.00;99.90
53876;DHT22;39789;53.216;5.624;2022-07-23T01:55:57;14.00;99.90
53876;DHT22;39789;53.216;5.624;2022-07-23T01:58:24;14.00;99.90
53876;DHT22;39789;53.216;5.624;2022-07-23T02:00:50;14.00;99.90
53876;DHT22;39789;53.216;5.624;2022-07-23T02:03:16;14.00;99.90
53876;DHT22;39789;53.216;5.624;2022-07-23T02:05:41;14.00;99.90
53876;DHT22;39789;53.216;5.624;2022-07-23T02:08:07;14.30;99.90
53876;DHT22;39789;53.216;5.624;2022-07-23T02:10:33;13.80;99.90
53876;DHT22;39789;53.216;5.624;2022-07-23T02:12:58;13.70;99.90
53876;DHT22;39789;53.216;5.624;2022-07-23T02:15:24;13.70;99.90
53876;DHT22;39789;53.216;5.624;2022-07-23T02:17:49;13.60;99.90
53876;DHT22;39789;53.216;5.624;2022-07-23T02:20:15;13.70;99.90
53876;DHT22;39789;53.216;5.624;2022-07-23T02:22:41;13.70;99.90
53876;DHT22;39789;53.216;5.624;2022-07-23T02:25:07;13.70;99.90
53876;DHT22;39789;53.216;5.624;2022-07-23T02:27:33;13.60;99.90
53876;DHT22;39789;53.216;5.624;2022-07-23T02:29:59;13.60;99.90
53876;DHT22;39789;53.216;5.624;2022-07-23T02:32:25;13.60;99.90
53876;DHT22;39789;53.216;5.624;2022-07-23T02:34:51;13.60;99.90
53876;DHT22;39789;53.216;5.624;2022-07-23T02:37:16;13.60;99.90
53876;DHT22;39789;53.216;5.624;2022-07-23T02:39:42;13.60;99.90
53876;DHT22;39789;53.216;5.624;2022-07-23T02:42:08;13.50;99.90
53876;DHT22;39789;53.216;5.624;2022-07-23T02:44:34;13.60;99.90
53876;DHT22;39789;53.216;5.624;2022-07-23T02:46:59;13.60;99.90
53876;DHT22;39789;53.216;5.624;2022-07-23T02:49:25;13.60;99.90
53876;DHT22;39789;53.216;5.624;2022-07-23T02:51:50;13.70;99.90
53876;DHT22;39789;53.216;5.624;2022-07-23T02:54:16;13.70;99.90
53876;DHT22;39789;53.216;5.624;2022-07-23T02:56:42;14.70;99.90
53876;DHT22;39789;53.216;5.624;2022-07-23T02:59:08;14.00;99.90
53876;DHT22;39789;53.216;5.624;2022-07-23T03:01:34;13.60;99.90
53876;DHT22;39789;53.216;5.624;2022-07-23T03:03:59;13.60;99.90
53876;DHT22;39789;53.216;5.624;2022-07-23T03:06:25;13.60;99.90
53876;DHT22;39789;53.216;5.624;2022-07-23T03:08:50;13.60;99.90
53876;DHT22;39789;53.216;5.624;2022-07-23T03:11:16;13.60;99.90
53876;DHT22;39789;53.216;5.624;2022-07-23T03:13:41;13.60;99.90
53876;DHT22;39789;53.216;5.624;2022-07-23T03:16:07;13.60;99.90
53876;DHT22;39789;53.216;5.624;2022-07-23T03:18:33;13.70;99.90
53876;DHT22;39789;53.216;5.624;2022-07-23T03:20:59;13.60;99.90
53876;DHT22;39789;53.216;5.624;2022-07-23T03:23:25;13.60;99.90
53876;DHT22;39789;53.216;5.624;2022-07-23T03:25:51;13.70;99.90
53876;DHT22;39789;53.216;5.624;2022-07-23T03:28:17;13.70;99.90
53876;DHT22;39789;53.216;5.624;2022-07-23T03:30:43;13.60;99.90
53876;DHT22;39789;53.216;5.624;2022-07-23T03:33:12;14.30;99.90
53876;DHT22;39789;53.216;5.624;2022-07-23T03:35:37;13.60;99.90
53876;DHT22;39789;53.216;5.624;2022-07-23T03:38:03;13.60;99.90
53876;DHT22;39789;53.216;5.624;2022-07-23T03:40:29;13.90;99.90
53876;DHT22;39789;53.216;5.624;2022-07-23T03:42:54;13.60;99.90
53876;DHT22;39789;53.216;5.624;2022-07-23T03:45:20;13.60;99.90
53876;DHT22;39789;53.216;5.624;2022-07-23T03:47:45;13.60;99.90
53876;DHT22;39789;53.216;5.624;2022-07-23T03:50:11;13.50;99.90
53876;DHT22;39789;53.216;5.624;2022-07-23T03:52:37;13.60;99.90
53876;DHT22;39789;53.216;5.624;2022-07-23T03:55:03;13.80;99.90
53876;DHT22;39789;53.216;5.624;2022-07-23T03:57:29;13.60;99.90
53876;DHT22;39789;53.216;5.624;2022-07-23T03:59:55;13.60;99.90
53876;DHT22;39789;53.216;5.624;2022-07-23T04:02:21;13.60;99.90
53876;DHT22;39789;53.216;5.624;2022-07-23T04:04:46;13.60;99.90
53876;DHT22;39789;53.216;5.624;2022-07-23T04:07:12;13.60;99.90
53876;DHT22;39789;53.216;5.624;2022-07-23T04:09:38;13.60;99.90
53876;DHT22;39789;53.216;5.624;2022-07-23T04:12:06;13.60;99.90
53876;DHT22;39789;53.216;5.624;2022-07-23T04:14:32;13.60;99.90
53876;DHT22;39789;53.216;5.624;2022-07-23T04:16:58;13.50;99.90
53876;DHT22;39789;53.216;5.624;2022-07-23T04:19:24;13.60;99.90
53876;DHT22;39789;53.216;5.624;2022-07-23T04:21:50;13.60;99.90
53876;DHT22;39789;53.216;5.624;2022-07-23T04:24:16;13.60;99.90
53876;DHT22;39789;53.216;5.624;2022-07-23T04:26:42;13.60;99.90
53876;DHT22;39789;53.216;5.624;2022-07-23T04:29:07;13.60;99.90
53876;DHT22;39789;53.216;5.624;2022-07-23T04:31:33;13.70;99.90
53876;DHT22;39789;53.216;5.624;2022-07-23T04:33:59;13.70;99.90
53876;DHT22;39789;53.216;5.624;2022-07-23T04:36:24;13.80;99.90
53876;DHT22;39789;53.216;5.624;2022-07-23T04:38:50;13.90;99.90
53876;DHT22;39789;53.216;5.624;2022-07-23T04:41:15;14.10;99.90
53876;DHT22;39789;53.216;5.624;2022-07-23T04:43:41;14.40;99.90
53876;DHT22;39789;53.216;5.624;2022-07-23T04:46:06;14.50;99.90
53876;DHT22;39789;53.216;5.624;2022-07-23T04:48:32;14.50;99.90
53876;DHT22;39789;53.216;5.624;2022-07-23T04:50:58;14.60;99.90
53876;DHT22;39789;53.216;5.624;2022-07-23T04:53:23;14.80;99.90
53876;DHT22;39789;53.216;5.624;2022-07-23T04:55:49;15.00;99.90
53876;DHT22;39789;53.216;5.624;2022-07-23T04:58:15;15.10;99.90
53876;DHT22;39789;53.216;5.624;2022-07-23T05:00:40;15.20;99.90
53876;DHT22;39789;53.216;5.624;2022-07-23T05:03:06;15.20;99.90
53876;DHT22;39789;53.216;5.624;2022-07-23T05:05:33;15.50;99.90
53876;DHT22;39789;53.216;5.624;2022-07-23T05:07:58;15.50;99.90
53876;DHT22;39789;53.216;5.624;2022-07-23T05:10:24;15.40;99.90
53876;DHT22;39789;53.216;5.624;2022-07-23T05:12:50;15.50;99.90
53876;DHT22;39789;53.216;5.624;2022-07-23T05:15:15;16.00;99.90
53876;DHT22;39789;53.216;5.624;2022-07-23T05:17:41;16.40;99.90
53876;DHT22;39789;53.216;5.624;2022-07-23T05:20:06;16.90;99.90
53876;DHT22;39789;53.216;5.624;2022-07-23T05:22:32;16.80;99.90
53876;DHT22;39789;53.216;5.624;2022-07-23T05:24:58;16.60;99.90
53876;DHT22;39789;53.216;5.624;2022-07-23T05:30:34;16.60;99.90
53876;DHT22;39789;53.216;5.624;2022-07-23T05:32:59;16.40;99.90
53876;DHT22;39789;53.216;5.624;2022-07-23T05:35:25;16.40;99.90
53876;DHT22;39789;53.216;5.624;2022-07-23T05:37:51;16.80;99.90
53876;DHT22;39789;53.216;5.624;2022-07-23T05:40:18;16.20;99.90
53876;DHT22;39789;53.216;5.624;2022-07-23T05:42:43;16.20;99.90
53876;DHT22;39789;53.216;5.624;2022-07-23T05:45:10;17.00;99.90
53876;DHT22;39789;53.216;5.624;2022-07-23T05:47:41;16.70;99.90
53876;DHT22;39789;53.216;5.624;2022-07-23T05:50:10;16.30;99.90
53876;DHT22;39789;53.216;5.624;2022-07-23T05:52:35;16.40;99.90
53876;DHT22;39789;53.216;5.624;2022-07-23T05:55:01;16.40;99.90
53876;DHT22;39789;53.216;5.624;2022-07-23T05:57:27;16.40;99.90
53876;DHT22;39789;53.216;5.624;2022-07-23T05:59:52;16.40;99.90
53876;DHT22;39789;53.216;5.624;2022-07-23T06:02:18;16.40;99.90
53876;DHT22;39789;53.216;5.624;2022-07-23T06:04:50;16.40;99.90
53876;DHT22;39789;53.216;5.624;2022-07-23T06:07:20;16.50;99.90
53876;DHT22;39789;53.216;5.624;2022-07-23T06:09:47;16.50;99.90
53876;DHT22;39789;53.216;5.624;2022-07-23T06:12:16;16.70;99.90
53876;DHT22;39789;53.216;5.624;2022-07-23T06:14:42;16.90;99.90
53876;DHT22;39789;53.216;5.624;2022-07-23T06:17:08;17.00;99.90
53876;DHT22;39789;53.216;5.624;2022-07-23T06:19:35;16.90;99.90
53876;DHT22;39789;53.216;5.624;2022-07-23T06:22:00;17.00;99.90
53876;DHT22;39789;53.216;5.624;2022-07-23T06:24:26;17.00;99.90
53876;DHT22;39789;53.216;5.624;2022-07-23T06:26:51;17.00;99.90
53876;DHT22;39789;53.216;5.624;2022-07-23T06:29:17;17.00;99.90
53876;DHT22;39789;53.216;5.624;2022-07-23T06:31:42;17.10;99.90
53876;DHT22;39789;53.216;5.624;2022-07-23T06:34:08;17.10;99.90
53876;DHT22;39789;53.216;5.624;2022-07-23T06:36:33;17.10;99.90
53876;DHT22;39789;53.216;5.624;2022-07-23T06:38:59;17.20;99.90
53876;DHT22;39789;53.216;5.624;2022-07-23T06:41:25;17.50;99.90
53876;DHT22;39789;53.216;5.624;2022-07-23T06:43:50;17.70;99.90
53876;DHT22;39789;53.216;5.624;2022-07-23T06:46:16;17.80;99.90
53876;DHT22;39789;53.216;5.624;2022-07-23T06:48:42;19.00;99.90
53876;DHT22;39789;53.216;5.624;2022-07-23T06:51:07;18.20;99.90
53876;DHT22;39789;53.216;5.624;2022-07-23T06:53:33;17.70;99.90
53876;DHT22;39789;53.216;5.624;2022-07-23T06:55:59;17.60;99.90
53876;DHT22;39789;53.216;5.624;2022-07-23T06:58:24;17.50;99.90
53876;DHT22;39789;53.216;5.624;2022-07-23T07:04:31;17.40;99.90
53876;DHT22;39789;53.216;5.624;2022-07-23T07:06:57;17.30;99.90
53876;DHT22;39789;53.216;5.624;2022-07-23T07:09:24;17.40;99.90
53876;DHT22;39789;53.216;5.624;2022-07-23T07:11:52;17.30;99.90
53876;DHT22;39789;53.216;5.624;2022-07-23T07:14:18;17.40;99.90
53876;DHT22;39789;53.216;5.624;2022-07-23T07:16:43;17.40;99.90
53876;DHT22;39789;53.216;5.624;2022-07-23T07:19:09;17.40;99.90
53876;DHT22;39789;53.216;5.624;2022-07-23T07:21:35;17.60;99.90
53876;DHT22;39789;53.216;5.624;2022-07-23T07:27:07;17.40;99.90
53876;DHT22;39789;53.216;5.624;2022-07-23T07:32:44;17.40;99.90
53876;DHT22;39789;53.216;5.624;2022-07-23T07:35:09;17.40;99.90
53876;DHT22;39789;53.216;5.624;2022-07-23T07:37:42;17.40;99.90
53876;DHT22;39789;53.216;5.624;2022-07-23T07:40:08;17.40;99.90
53876;DHT22;39789;53.216;5.624;2022-07-23T07:42:34;17.40;99.90
53876;DHT22;39789;53.216;5.624;2022-07-23T07:44:59;17.40;99.90
53876;DHT22;39789;53.216;5.624;2022-07-23T07:47:25;17.30;99.90
53876;DHT22;39789;53.216;5.624;2022-07-23T07:50:27;17.30;99.90
53876;DHT22;39789;53.216;5.624;2022-07-23T07:52:53;17.20;99.90
53876;DHT22;39789;53.216;5.624;2022-07-23T07:55:19;17.40;99.90
53876;DHT22;39789;53.216;5.624;2022-07-23T07:57:44;17.10;99.90
53876;DHT22;39789;53.216;5.624;2022-07-23T08:00:10;17.20;99.90
53876;DHT22;39789;53.216;5.624;2022-07-23T08:02:54;17.10;99.90
53876;DHT22;39789;53.216;5.624;2022-07-23T08:05:24;17.40;99.90
53876;DHT22;39789;53.216;5.624;2022-07-23T08:07:51;17.10;99.90
53876;DHT22;39789;53.216;5.624;2022-07-23T08:10:18;17.10;99.90
53876;DHT22;39789;53.216;5.624;2022-07-23T08:12:53;17.20;99.90
53876;DHT22;39789;53.216;5.624;2022-07-23T08:15:20;17.20;99.90
53876;DHT22;39789;53.216;5.624;2022-07-23T08:17:47;17.30;99.90
53876;DHT22;39789;53.216;5.624;2022-07-23T08:20:14;17.30;99.90
53876;DHT22;39789;53.216;5.624;2022-07-23T08:22:43;17.40;99.90
53876;DHT22;39789;53.216;5.624;2022-07-23T08:25:15;17.40;99.90
53876;DHT22;39789;53.216;5.624;2022-07-23T08:27:40;17.50;99.90
53876;DHT22;39789;53.216;5.624;2022-07-23T08:30:06;17.60;99.90
53876;DHT22;39789;53.216;5.624;2022-07-23T08:32:32;17.70;99.90
53876;DHT22;39789;53.216;5.624;2022-07-23T08:34:58;17.70;99.90
53876;DHT22;39789;53.216;5.624;2022-07-23T08:37:23;17.70;99.90
53876;DHT22;39789;53.216;5.624;2022-07-23T08:39:50;17.70;99.90
53876;DHT22;39789;53.216;5.624;2022-07-23T08:42:16;17.80;99.90
53876;DHT22;39789;53.216;5.624;2022-07-23T08:44:45;17.80;99.90
53876;DHT22;39789;53.216;5.624;2022-07-23T08:47:12;17.90;99.90
53876;DHT22;39789;53.216;5.624;2022-07-23T08:49:38;18.00;99.90
53876;DHT22;39789;53.216;5.624;2022-07-23T08:52:05;18.10;99.90
53876;DHT22;39789;53.216;5.624;2022-07-23T08:54:31;18.20;99.90
53876;DHT22;39789;53.216;5.624;2022-07-23T08:56:57;18.50;99.90
53876;DHT22;39789;53.216;5.624;2022-07-23T08:59:23;19.00;99.90
53876;DHT22;39789;53.216;5.624;2022-07-23T09:01:48;19.40;99.90
53876;DHT22;39789;53.216;5.624;2022-07-23T09:04:14;19.40;99.90
53876;DHT22;39789;53.216;5.624;2022-07-23T09:06:39;19.30;99.90
53876;DHT22;39789;53.216;5.624;2022-07-23T09:09:18;19.00;99.90
53876;DHT22;39789;53.216;5.624;2022-07-23T09:11:48;18.80;99.90
53876;DHT22;39789;53.216;5.624;2022-07-23T09:14:41;18.70;99.90
53876;DHT22;39789;53.216;5.624;2022-07-23T09:17:11;18.70;99.90
53876;DHT22;39789;53.216;5.624;2022-07-23T09:19:37;18.60;99.90
53876;DHT22;39789;53.216;5.624;2022-07-23T09:22:25;18.70;99.90
53876;DHT22;39789;53.216;5.624;2022-07-23T09:30:12;19.60;99.90
53876;DHT22;39789;53.216;5.624;2022-07-23T09:32:39;19.80;99.90
53876;DHT22;39789;53.216;5.624;2022-07-23T09:35:05;19.90;99.90
53876;DHT22;39789;53.216;5.624;2022-07-23T09:37:30;20.00;99.90
53876;DHT22;39789;53.216;5.624;2022-07-23T09:40:07;20.20;99.90
53876;DHT22;39789;53.216;5.624;2022-07-23T09:42:34;20.20;99.90
53876;DHT22;39789;53.216;5.624;2022-07-23T09:45:00;20.00;99.90
53876;DHT22;39789;53.216;5.624;2022-07-23T09:47:31;19.90;99.90
53876;DHT22;39789;53.216;5.624;2022-07-23T09:56:04;19.80;99.90
53876;DHT22;39789;53.216;5.624;2022-07-23T09:58:30;20.00;99.90
53876;DHT22;39789;53.216;5.624;2022-07-23T10:00:57;20.20;99.90
53876;DHT22;39789;53.216;5.624;2022-07-23T10:03:23;20.00;99.90
53876;DHT22;39789;53.216;5.624;2022-07-23T10:05:50;20.10;99.90
53876;DHT22;39789;53.216;5.624;2022-07-23T10:08:19;20.40;99.90
53876;DHT22;39789;53.216;5.624;2022-07-23T10:10:46;20.20;99.90
53876;DHT22;39789;53.216;5.624;2022-07-23T10:13:15;20.80;99.90
53876;DHT22;39789;53.216;5.624;2022-07-23T10:16:10;20.10;99.90
53876;DHT22;39789;53.216;5.624;2022-07-23T10:18:36;20.20;99.90
53876;DHT22;39789;53.216;5.624;2022-07-23T10:21:06;20.10;99.90
53876;DHT22;39789;53.216;5.624;2022-07-23T10:23:51;20.00;99.90
53876;DHT22;39789;53.216;5.624;2022-07-23T10:26:41;20.20;99.90
53876;DHT22;39789;53.216;5.624;2022-07-23T10:29:42;19.80;99.90
53876;DHT22;39789;53.216;5.624;2022-07-23T10:32:16;19.80;99.90
53876;DHT22;39789;53.216;5.624;2022-07-23T10:34:58;19.80;99.90
53876;DHT22;39789;53.216;5.624;2022-07-23T10:37:35;19.80;99.90
53876;DHT22;39789;53.216;5.624;2022-07-23T10:40:33;19.90;99.90
53876;DHT22;39789;53.216;5.624;2022-07-23T10:42:59;20.20;99.90
53876;DHT22;39789;53.216;5.624;2022-07-23T10:45:35;20.40;99.90
53876;DHT22;39789;53.216;5.624;2022-07-23T10:48:23;20.50;99.90
53876;DHT22;39789;53.216;5.624;2022-07-23T10:53:56;20.70;99.90
53876;DHT22;39789;53.216;5.624;2022-07-23T10:59:22;20.80;99.90
53876;DHT22;39789;53.216;5.624;2022-07-23T11:01:48;20.80;99.90
53876;DHT22;39789;53.216;5.624;2022-07-23T11:04:14;20.80;99.90
53876;DHT22;39789;53.216;5.624;2022-07-23T11:09:43;20.90;99.90
53876;DHT22;39789;53.216;5.624;2022-07-23T11:15:04;21.20;99.90
53876;DHT22;39789;53.216;5.624;2022-07-23T11:17:33;20.70;99.90
53876;DHT22;39789;53.216;5.624;2022-07-23T11:22:55;20.80;99.90
53876;DHT22;39789;53.216;5.624;2022-07-23T11:27:48;20.70;99.90
53876;DHT22;39789;53.216;5.624;2022-07-23T11:35:35;20.80;99.90
53876;DHT22;39789;53.216;5.624;2022-07-23T11:38:05;20.90;99.90
53876;DHT22;39789;53.216;5.624;2022-07-23T11:40:32;21.20;99.90
53876;DHT22;39789;53.216;5.624;2022-07-23T11:43:01;20.90;99.90
53876;DHT22;39789;53.216;5.624;2022-07-23T11:45:32;20.90;99.90
53876;DHT22;39789;53.216;5.624;2022-07-23T11:47:58;21.00;99.90
53876;DHT22;39789;53.216;5.624;2022-07-23T11:50:24;21.10;99.90
53876;DHT22;39789;53.216;5.624;2022-07-23T11:52:53;21.10;99.90
53876;DHT22;39789;53.216;5.624;2022-07-23T11:55:20;21.40;99.90
53876;DHT22;39789;53.216;5.624;2022-07-23T11:57:47;21.50;99.90
53876;DHT22;39789;53.216;5.624;2022-07-23T12:00:18;21.00;99.90
53876;DHT22;39789;53.216;5.624;2022-07-23T12:02:49;21.10;99.90
53876;DHT22;39789;53.216;5.624;2022-07-23T12:05:18;21.20;99.90
53876;DHT22;39789;53.216;5.624;2022-07-23T12:07:45;21.10;99.90
53876;DHT22;39789;53.216;5.624;2022-07-23T12:10:30;21.20;99.90
53876;DHT22;39789;53.216;5.624;2022-07-23T12:13:00;21.10;99.90
53876;DHT22;39789;53.216;5.624;2022-07-23T12:17:56;22.30;99.90
53876;DHT22;39789;53.216;5.624;2022-07-23T12:20:30;21.20;99.90
53876;DHT22;39789;53.216;5.624;2022-07-23T12:22:59;21.20;99.90
53876;DHT22;39789;53.216;5.624;2022-07-23T12:25:30;21.10;99.90
53876;DHT22;39789;53.216;5.624;2022-07-23T12:28:05;21.00;99.90
53876;DHT22;39789;53.216;5.624;2022-07-23T12:30:43;20.90;99.90
53876;DHT22;39789;53.216;5.624;2022-07-23T12:33:11;21.00;99.90
53876;DHT22;39789;53.216;5.624;2022-07-23T12:35:45;21.30;99.90
53876;DHT22;39789;53.216;5.624;2022-07-23T12:38:20;21.60;99.90
53876;DHT22;39789;53.216;5.624;2022-07-23T12:40:47;21.70;99.90
53876;DHT22;39789;53.216;5.624;2022-07-23T12:43:25;21.70;99.90
53876;DHT22;39789;53.216;5.624;2022-07-23T12:45:56;21.80;99.90
53876;DHT22;39789;53.216;5.624;2022-07-23T12:48:28;21.60;99.90
53876;DHT22;39789;53.216;5.624;2022-07-23T12:51:03;21.60;99.90
53876;DHT22;39789;53.216;5.624;2022-07-23T12:53:43;21.60;99.90
53876;DHT22;39789;53.216;5.624;2022-07-23T12:56:17;21.70;99.90
53876;DHT22;39789;53.216;5.624;2022-07-23T12:58:47;21.70;99.90
53876;DHT22;39789;53.216;5.624;2022-07-23T13:01:26;21.50;99.90
53876;DHT22;39789;53.216;5.624;2022-07-23T13:04:18;21.40;99.90
53876;DHT22;39789;53.216;5.624;2022-07-23T13:06:48;21.50;99.90
53876;DHT22;39789;53.216;5.624;2022-07-23T13:09:16;21.30;99.90
53876;DHT22;39789;53.216;5.624;2022-07-23T13:11:43;21.40;99.90
53876;DHT22;39789;53.216;5.624;2022-07-23T13:14:11;21.40;99.90
53876;DHT22;39789;53.216;5.624;2022-07-23T13:16:37;21.50;99.90
53876;DHT22;39789;53.216;5.624;2022-07-23T13:19:03;21.60;99.90
53876;DHT22;39789;53.216;5.624;2022-07-23T13:21:28;21.60;99.90
53876;DHT22;39789;53.216;5.624;2022-07-23T13:23:55;21.90;99.90
53876;DHT22;39789;53.216;5.624;2022-07-23T13:26:21;21.70;99.90
53876;DHT22;39789;53.216;5.624;2022-07-23T13:28:47;21.90;99.90
53876;DHT22;39789;53.216;5.624;2022-07-23T13:31:13;22.00;99.90
53876;DHT22;39789;53.216;5.624;2022-07-23T13:33:39;22.00;99.90
53876;DHT22;39789;53.216;5.624;2022-07-23T13:36:05;22.00;99.90
53876;DHT22;39789;53.216;5.624;2022-07-23T13:38:30;22.00;99.90
53876;DHT22;39789;53.216;5.624;2022-07-23T13:40:56;21.90;99.90
53876;DHT22;39789;53.216;5.624;2022-07-23T13:43:24;22.00;99.90
53876;DHT22;39789;53.216;5.624;2022-07-23T13:45:51;22.10;99.90
53876;DHT22;39789;53.216;5.624;2022-07-23T13:48:18;22.10;99.90
53876;DHT22;39789;53.216;5.624;2022-07-23T13:50:45;22.20;99.90
53876;DHT22;39789;53.216;5.624;2022-07-23T13:53:16;22.30;99.90
53876;DHT22;39789;53.216;5.624;2022-07-23T13:55:42;22.50;99.90
53876;DHT22;39789;53.216;5.624;2022-07-23T13:58:08;22.50;99.90
53876;DHT22;39789;53.216;5.624;2022-07-23T14:00:37;23.20;99.90
53876;DHT22;39789;53.216;5.624;2022-07-23T14:03:03;22.50;99.90
53876;DHT22;39789;53.216;5.624;2022-07-23T14:05:29;22.50;99.90
53876;DHT22;39789;53.216;5.624;2022-07-23T14:07:55;22.40;99.90
53876;DHT22;39789;53.216;5.624;2022-07-23T14:10:22;22.40;99.90
53876;DHT22;39789;53.216;5.624;2022-07-23T14:12:48;22.40;99.90
53876;DHT22;39789;53.216;5.624;2022-07-23T14:15:18;22.80;99.90
53876;DHT22;39789;53.216;5.624;2022-07-23T14:17:45;22.50;99.90
53876;DHT22;39789;53.216;5.624;2022-07-23T14:20:13;22.50;99.90
53876;DHT22;39789;53.216;5.624;2022-07-23T14:22:40;22.80;99.90
53876;DHT22;39789;53.216;5.624;2022-07-23T14:25:06;22.60;99.90
53876;DHT22;39789;53.216;5.624;2022-07-23T14:27:32;22.70;99.90
53876;DHT22;39789;53.216;5.624;2022-07-23T14:29:59;22.80;99.90
53876;DHT22;39789;53.216;5.624;2022-07-23T14:32:25;22.80;99.90
53876;DHT22;39789;53.216;5.624;2022-07-23T14:34:51;23.30;99.90
53876;DHT22;39789;53.216;5.624;2022-07-23T14:37:17;23.00;99.90
53876;DHT22;39789;53.216;5.624;2022-07-23T14:39:44;23.30;99.90
53876;DHT22;39789;53.216;5.624;2022-07-23T14:42:09;22.70;99.90
53876;DHT22;39789;53.216;5.624;2022-07-23T14:44:36;22.80;99.90
53876;DHT22;39789;53.216;5.624;2022-07-23T14:47:03;22.70;99.90
53876;DHT22;39789;53.216;5.624;2022-07-23T14:49:33;22.60;99.90
53876;DHT22;39789;53.216;5.624;2022-07-23T14:51:59;22.70;99.90
53876;DHT22;39789;53.216;5.624;2022-07-23T14:54:26;23.20;99.90
53876;DHT22;39789;53.216;5.624;2022-07-23T14:56:53;22.60;99.90
53876;DHT22;39789;53.216;5.624;2022-07-23T14:59:21;22.70;99.90
53876;DHT22;39789;53.216;5.624;2022-07-23T15:01:47;23.50;99.90
53876;DHT22;39789;53.216;5.624;2022-07-23T15:04:13;22.80;99.90
53876;DHT22;39789;53.216;5.624;2022-07-23T15:06:39;22.40;99.90
53876;DHT22;39789;53.216;5.624;2022-07-23T15:09:05;22.80;99.90
53876;DHT22;39789;53.216;5.624;2022-07-23T15:11:31;23.30;99.90
53876;DHT22;39789;53.216;5.624;2022-07-23T15:14:00;22.70;99.90
53876;DHT22;39789;53.216;5.624;2022-07-23T15:16:26;22.80;99.90
53876;DHT22;39789;53.216;5.624;2022-07-23T15:18:52;22.80;99.90
53876;DHT22;39789;53.216;5.624;2022-07-23T15:21:18;22.90;99.90
53876;DHT22;39789;53.216;5.624;2022-07-23T15:23:44;22.80;99.90
53876;DHT22;39789;53.216;5.624;2022-07-23T15:26:11;22.90;99.90
53876;DHT22;39789;53.216;5.624;2022-07-23T15:28:37;23.50;99.90
53876;DHT22;39789;53.216;5.624;2022-07-23T15:31:03;23.20;99.90
53876;DHT22;39789;53.216;5.624;2022-07-23T15:33:29;23.00;99.90
53876;DHT22;39789;53.216;5.624;2022-07-23T15:35:55;23.00;99.90
53876;DHT22;39789;53.216;5.624;2022-07-23T15:38:22;23.40;99.90
53876;DHT22;39789;53.216;5.624;2022-07-23T15:40:48;22.70;99.90
53876;DHT22;39789;53.216;5.624;2022-07-23T15:43:13;24.00;99.90
53876;DHT22;39789;53.216;5.624;2022-07-23T15:45:40;22.90;99.90
53876;DHT22;39789;53.216;5.624;2022-07-23T15:48:06;23.20;99.90
53876;DHT22;39789;53.216;5.624;2022-07-23T15:50:36;23.10;99.90
53876;DHT22;39789;53.216;5.624;2022-07-23T15:53:02;23.00;99.90
53876;DHT22;39789;53.216;5.624;2022-07-23T15:55:27;23.60;99.90
53876;DHT22;39789;53.216;5.624;2022-07-23T15:57:53;23.00;99.90
53876;DHT22;39789;53.216;5.624;2022-07-23T16:00:19;23.00;99.90
53876;DHT22;39789;53.216;5.624;2022-07-23T16:02:45;23.00;99.90
53876;DHT22;39789;53.216;5.624;2022-07-23T16:05:10;23.00;99.90
53876;DHT22;39789;53.216;5.624;2022-07-23T16:07:36;23.00;99.90
53876;DHT22;39789;53.216;5.624;2022-07-23T16:10:05;22.90;99.90
53876;DHT22;39789;53.216;5.624;2022-07-23T16:12:30;22.90;99.90
53876;DHT22;39789;53.216;5.624;2022-07-23T16:14:56;22.90;99.90
53876;DHT22;39789;53.216;5.624;2022-07-23T16:17:22;22.90;99.90
53876;DHT22;39789;53.216;5.624;2022-07-23T16:19:53;22.80;99.90
53876;DHT22;39789;53.216;5.624;2022-07-23T16:22:18;22.80;99.90
53876;DHT22;39789;53.216;5.624;2022-07-23T16:24:44;22.60;99.90